| Date | Time | Temp. (oF) | Dew Point (oF) | Rel. Hum. (%) | Press. (in.) | Wind Dir. | Wind Speed (mph) | Hourly Rainfall (in.) |
|
|---|---|---|---|---|---|---|---|---|---|
| 1 | 01/20 | 00:00 | 20 | 19 | 96 | 29.96 | NW | 2 | 0.00 |
| 2 | 01/19 | 23:00 | 20 | 19 | 97 | 29.96 | SSW | 3 | 0.01 |
| 3 | 01/19 | 22:00 | 19 | 18 | 97 | 29.96 | SSE | 2 | 0.01 |
| 4 | 01/19 | 21:00 | 19 | 18 | 97 | 29.98 | SSW | 3 | 0.00 |
| 5 | 01/19 | 20:00 | 18 | 17 | 98 | 30.00 | SSW | 2 | 0.01 |
| 6 | 01/19 | 19:00 | 18 | 17 | 97 | 30.01 | S | 2 | 0.00 |
| 7 | 01/19 | 18:00 | 18 | 16 | 95 | 30.02 | S | 7 | 0.00 |
| 8 | 01/19 | 17:00 | 18 | 15 | 91 | 30.02 | SSW | 5 | 0.00 |
| 9 | 01/19 | 16:00 | 18 | 16 | 92 | 30.04 | SSW | 7 | 0.00 |
| 10 | 01/19 | 15:00 | 18 | 16 | 95 | 30.06 | SSW | 10 | 0.00 |
| 11 | 01/19 | 14:00 | 18 | 17 | 99 | 30.10 | S | 10 | 0.00 |
| 12 | 01/19 | 13:00 | 17 | 16 | 98 | 30.14 | S | 9 | 0.00 |
| 13 | 01/19 | 12:00 | 16 | 14 | 95 | 30.20 | SSE | 8 | 0.00 |
| 14 | 01/19 | 11:00 | 16 | 10 | 79 | 30.25 | SSW | 10 | 0.00 |
| 15 | 01/19 | 10:00 | 16 | 6 | 65 | 30.28 | S | 15 | 0.00 |
| 16 | miss | miss | miss | miss | miss | miss | miss | miss | |
| 17 | 01/19 | 09:47 | 15 | 5 | 64 | 30.29 | SSE | 16 | 0.00 |
| 18 | miss | miss | miss | miss | miss | miss | miss | miss | |
| 19 | 01/19 | 09:45 | 15 | 5 | 65 | 30.29 | S | 16 | 0.00 |
| 20 | miss | miss | miss | miss | miss | miss | miss | miss | |
| 21 | 01/19 | 09:43 | 15 | 5 | 65 | 30.29 | SSW | 12 | 0.00 |
| 22 | miss | miss | miss | miss | miss | miss | miss | miss | |
| 23 | 01/19 | 09:41 | 15 | 5 | 65 | 30.30 | S | 10 | 0.00 |
| 24 | miss | miss | miss | miss | miss | miss | miss | miss | |
| 25 | 01/19 | 09:39 | 15 | 5 | 65 | 30.30 | SSE | 9 | 0.00 |
| 26 | miss | miss | miss | miss | miss | miss | miss | miss | |
| 27 | 01/19 | 09:39 | 15 | 5 | 65 | 30.30 | SSE | 9 | 0.00 |
| 28 | miss | miss | miss | miss | miss | miss | miss | miss | |
| 29 | 01/19 | 09:39 | 15 | 5 | 65 | 30.30 | SSE | 9 | 0.00 |
| 30 | miss | miss | miss | miss | miss | miss | miss | miss | |
| 31 | 01/19 | 09:39 | 15 | 5 | 65 | 30.30 | SSE | 9 | 0.00 |
| 32 | miss | miss | miss | miss | miss | miss | miss | miss | |
| 33 | 01/19 | 09:39 | 15 | 5 | 65 | 30.30 | SSE | 9 | 0.00 |
| 34 | miss | miss | miss | miss | miss | miss | miss | miss | |
| 35 | 01/19 | 09:39 | 15 | 5 | 65 | 30.30 | SSE | 9 | 0.00 |
| 36 | miss | miss | miss | miss | miss | miss | miss | miss | |
| 37 | 01/19 | 09:39 | 15 | 5 | 65 | 30.30 | SSE | 9 | 0.00 |
| 38 | miss | miss | miss | miss | miss | miss | miss | miss | |
| 39 | 01/19 | 09:39 | 15 | 5 | 65 | 30.30 | SSE | 9 | 0.00 |
| 40 | 01/19 | 09:00 | 14 | 5 | 69 | 30.32 | SE | 4 | 0.00 |
| 41 | 01/19 | 08:00 | 12 | 3 | 69 | 30.36 | S | 4 | 0.00 |
| 42 | 01/19 | 07:00 | 12 | 2 | 66 | 30.39 | S | 7 | 0.00 |
| 43 | 01/19 | 06:00 | 11 | 1 | 65 | 30.42 | S | 5 | 0.00 |
| 44 | 01/19 | 05:00 | 11 | 2 | 68 | 30.44 | SSE | 4 | 0.00 |
| 45 | 01/19 | 04:00 | 10 | 0 | 66 | 30.48 | SSE | 2 | 0.00 |
| 46 | 01/19 | 03:00 | 10 | 1 | 67 | 30.52 | ESE | 1 | 0.00 |
| 47 | 01/19 | 02:00 | 9 | 1 | 70 | 30.54 | E | 1 | 0.00 |
| 48 | 01/19 | 01:00 | 8 | -1 | 66 | 30.58 | S | 4 | 0.00 |
| 49 | 01/19 | 00:00 | 8 | 0 | 67 | 30.57 | SSE | 3 | -0.03 |
| 50 | 01/18 | 23:00 | 9 | -1 | 62 | 30.60 | ENE | 3 | 0.00 |
| 51 | 01/18 | 22:00 | 10 | -1 | 59 | 30.63 | E | 1 | 0.00 |
| 52 | 01/18 | 21:00 | 11 | -2 | 54 | 30.65 | ENE | 0 | 0.00 |
| 53 | 01/18 | 20:00 | 11 | -3 | 51 | 30.67 | NE | 2 | 0.00 |
| 54 | 01/18 | 19:00 | 12 | -3 | 48 | 30.68 | NNW | 3 | 0.00 |
| 55 | 01/18 | 18:00 | 13 | -3 | 47 | 30.65 | NNW | 2 | 0.00 |
| 56 | 01/18 | 17:00 | 14 | -4 | 43 | 30.63 | NW | 6 | 0.00 |
| 57 | 01/18 | 16:00 | 15 | -4 | 42 | 30.61 | NW | 6 | 0.00 |
| 58 | 01/18 | 15:00 | 15 | -4 | 41 | 30.62 | NNW | 9 | 0.00 |
| 59 | 01/18 | 14:00 | 14 | -3 | 44 | 30.64 | NNW | 8 | 0.00 |
| 60 | 01/18 | 13:00 | 14 | -3 | 45 | 30.64 | WNW | 19 | 0.00 |
| 61 | 01/18 | 12:00 | 12 | -5 | 45 | 30.68 | NNW | 15 | 0.00 |
| 62 | 01/18 | 11:00 | 12 | -1 | 54 | 30.69 | NW | 22 | 0.00 |
| 63 | 01/18 | 10:00 | 12 | -2 | 51 | 30.68 | NW | 10 | 0.00 |
| 64 | 01/18 | 09:00 | 11 | -2 | 55 | 30.65 | WNW | 11 | 0.00 |
| 65 | 01/18 | 08:00 | 9 | -2 | 58 | 30.63 | W | 17 | 0.00 |
| 66 | 01/18 | 07:00 | 9 | -2 | 59 | 30.60 | W | 11 | 0.00 |
| 67 | 01/18 | 06:00 | 10 | -1 | 59 | 30.57 | WNW | 9 | 0.00 |
| 68 | 01/18 | 05:00 | 10 | 0 | 61 | 30.55 | W | 7 | 0.00 |
| 69 | 01/18 | 04:00 | 11 | 0 | 61 | 30.54 | W | 9 | 0.00 |
| 70 | 01/18 | 03:00 | 11 | 1 | 64 | 30.52 | WNW | 9 | 0.00 |
| 71 | miss | miss | miss | miss | miss | miss | miss | miss | |
| 72 | 01/18 | 02:01 | 12 | 2 | 65 | 30.51 | WNW | 9 | 0.00 |
| 73 | miss | miss | miss | miss | miss | miss | miss | miss | |
| 74 | 01/18 | 02:00 | 12 | 2 | 65 | 30.51 | W | 11 | 0.00 |
| 75 | miss | miss | miss | miss | miss | miss | miss | miss | |
| 76 | 01/18 | 02:00 | 12 | 2 | 65 | 30.51 | W | 11 | 0.00 |
| 77 | miss | miss | miss | miss | miss | miss | miss | miss | |
| 78 | 01/18 | 02:00 | 12 | 2 | 65 | 30.51 | W | 11 | 0.00 |
| 79 | miss | miss | miss | miss | miss | miss | miss | miss | |
| 80 | 01/18 | 02:00 | 12 | 2 | 65 | 30.51 | W | 11 | 0.00 |
| 81 | miss | miss | miss | miss | miss | miss | miss | miss | |
| 82 | 01/18 | 02:00 | 12 | 2 | 65 | 30.51 | W | 11 | 0.00 |
| 83 | miss | miss | miss | miss | miss | miss | miss | miss | |
| 84 | 01/18 | 02:00 | 12 | 2 | 65 | 30.51 | W | 11 | 0.00 |
| 85 | miss | miss | miss | miss | miss | miss | miss | miss | |
| 86 | 01/18 | 02:00 | 12 | 2 | 65 | 30.51 | W | 11 | 0.00 |
| 87 | miss | miss | miss | miss | miss | miss | miss | miss | |
| 88 | 01/18 | 02:00 | 12 | 2 | 65 | 30.51 | W | 11 | 0.00 |
| 89 | miss | miss | miss | miss | miss | miss | miss | miss | |
| 90 | 01/18 | 02:00 | 12 | 2 | 65 | 30.51 | W | 11 | 0.00 |
| 91 | miss | miss | miss | miss | miss | miss | miss | miss | |
| 92 | 01/18 | 02:00 | 12 | 2 | 65 | 30.51 | W | 11 | 0.00 |
| 93 | miss | miss | miss | miss | miss | miss | miss | miss | |
| 94 | 01/18 | 02:00 | 12 | 2 | 65 | 30.51 | W | 11 | 0.00 |
| 95 | 01/18 | 01:59 | 12 | 2 | 65 | 30.50 | W | 2 | 0.00 |
| 96 | 01/18 | 01:00 | 12 | 1 | 63 | 30.49 | WNW | 6 | 0.00 |
| 97 | 01/18 | 00:00 | 12 | 1 | 61 | 30.48 | WNW | 8 | 0.00 |